sensor_id;sensor_type;location;lat;lon;timestamp;pressure;altitude;pressure_sealevel;temperature;humidity
47726;BME280;33483;48.294;16.388;2023-07-20T00:02:21;98989.28;;;21.62;71.46
47726;BME280;33483;48.294;16.388;2023-07-20T00:04:48;98989.47;;;21.53;72.70
47726;BME280;33483;48.294;16.388;2023-07-20T00:07:15;98992.19;;;21.39;74.85
47726;BME280;33483;48.294;16.388;2023-07-20T00:09:43;98996.34;;;21.38;75.06
47726;BME280;33483;48.294;16.388;2023-07-20T00:12:10;98988.88;;;21.31;75.39
47726;BME280;33483;48.294;16.388;2023-07-20T00:14:37;98978.59;;;21.24;76.73
47726;BME280;33483;48.294;16.388;2023-07-20T00:17:04;98981.16;;;21.20;77.69
47726;BME280;33483;48.294;16.388;2023-07-20T00:19:31;98973.97;;;21.05;79.28
47726;BME280;33483;48.294;16.388;2023-07-20T00:21:59;98979.25;;;20.99;79.88
47726;BME280;33483;48.294;16.388;2023-07-20T00:24:28;98977.16;;;20.88;80.83
47726;BME280;33483;48.294;16.388;2023-07-20T00:26:55;98976.03;;;20.82;82.13
47726;BME280;33483;48.294;16.388;2023-07-20T00:29:23;98972.88;;;20.76;82.92
47726;BME280;33483;48.294;16.388;2023-07-20T00:31:50;98983.88;;;20.72;84.25
47726;BME280;33483;48.294;16.388;2023-07-20T00:34:18;98991.97;;;20.66;85.29
47726;BME280;33483;48.294;16.388;2023-07-20T00:36:45;98982.66;;;20.63;86.49
47726;BME280;33483;48.294;16.388;2023-07-20T00:39:12;98985.81;;;20.58;88.47
47726;BME280;33483;48.294;16.388;2023-07-20T00:41:39;98988.03;;;20.48;90.47
47726;BME280;33483;48.294;16.388;2023-07-20T00:44:06;98984.81;;;20.42;91.59
47726;BME280;33483;48.294;16.388;2023-07-20T00:46:33;98991.81;;;20.41;92.33
47726;BME280;33483;48.294;16.388;2023-07-20T00:49:01;98995.09;;;20.37;91.97
47726;BME280;33483;48.294;16.388;2023-07-20T00:51:28;98996.06;;;20.42;91.51
47726;BME280;33483;48.294;16.388;2023-07-20T00:53:55;99001.97;;;20.46;90.62
47726;BME280;33483;48.294;16.388;2023-07-20T00:56:23;99001.97;;;20.46;90.31
47726;BME280;33483;48.294;16.388;2023-07-20T00:58:51;99002.50;;;20.54;88.44
47726;BME280;33483;48.294;16.388;2023-07-20T01:01:21;98989.03;;;20.64;87.41
47726;BME280;33483;48.294;16.388;2023-07-20T01:03:49;98987.66;;;20.65;86.58
47726;BME280;33483;48.294;16.388;2023-07-20T01:08:46;98999.94;;;20.69;88.13
47726;BME280;33483;48.294;16.388;2023-07-20T01:11:28;98997.34;;;20.73;86.52
47726;BME280;33483;48.294;16.388;2023-07-20T01:13:58;98993.91;;;20.75;87.14
47726;BME280;33483;48.294;16.388;2023-07-20T01:16:26;98982.53;;;20.73;87.25
47726;BME280;33483;48.294;16.388;2023-07-20T01:18:54;98986.94;;;20.87;85.22
47726;BME280;33483;48.294;16.388;2023-07-20T01:21:22;98989.75;;;20.87;85.29
47726;BME280;33483;48.294;16.388;2023-07-20T01:32:03;99001.13;;;21.47;74.92
47726;BME280;33483;48.294;16.388;2023-07-20T01:34:31;98988.34;;;21.58;75.05
47726;BME280;33483;48.294;16.388;2023-07-20T01:37:05;98979.13;;;21.57;75.35
47726;BME280;33483;48.294;16.388;2023-07-20T01:39:33;98976.19;;;21.55;75.28
47726;BME280;33483;48.294;16.388;2023-07-20T01:42:02;98974.38;;;21.48;76.30
47726;BME280;33483;48.294;16.388;2023-07-20T01:44:29;98979.06;;;21.44;77.52
47726;BME280;33483;48.294;16.388;2023-07-20T01:46:57;98975.88;;;21.38;77.60
47726;BME280;33483;48.294;16.388;2023-07-20T01:49:24;98972.09;;;21.33;77.80
47726;BME280;33483;48.294;16.388;2023-07-20T01:51:51;98989.38;;;21.27;79.68
47726;BME280;33483;48.294;16.388;2023-07-20T01:54:18;98985.84;;;21.15;81.61
47726;BME280;33483;48.294;16.388;2023-07-20T01:56:45;98981.44;;;21.01;84.44
47726;BME280;33483;48.294;16.388;2023-07-20T01:59:12;98984.13;;;20.87;86.85
47726;BME280;33483;48.294;16.388;2023-07-20T02:01:39;98991.47;;;20.81;87.29
47726;BME280;33483;48.294;16.388;2023-07-20T02:04:07;98988.53;;;20.79;87.26
47726;BME280;33483;48.294;16.388;2023-07-20T02:06:34;98981.31;;;20.76;87.80
47726;BME280;33483;48.294;16.388;2023-07-20T02:09:01;98991.22;;;20.77;86.63
47726;BME280;33483;48.294;16.388;2023-07-20T02:11:31;98992.44;;;20.74;86.50
47726;BME280;33483;48.294;16.388;2023-07-20T02:13:58;98988.91;;;20.73;86.78
47726;BME280;33483;48.294;16.388;2023-07-20T02:16:26;98998.22;;;20.76;87.01
47726;BME280;33483;48.294;16.388;2023-07-20T02:18:53;98995.75;;;20.82;85.90
47726;BME280;33483;48.294;16.388;2023-07-20T02:21:23;98992.94;;;20.82;85.90
47726;BME280;33483;48.294;16.388;2023-07-20T02:23:51;98995.16;;;20.72;88.75
47726;BME280;33483;48.294;16.388;2023-07-20T02:26:20;99010.31;;;20.67;89.42
47726;BME280;33483;48.294;16.388;2023-07-20T02:28:51;99011.41;;;20.62;90.51
47726;BME280;33483;48.294;16.388;2023-07-20T02:31:18;99011.03;;;20.56;92.18
47726;BME280;33483;48.294;16.388;2023-07-20T02:33:45;99011.28;;;20.48;93.60
47726;BME280;33483;48.294;16.388;2023-07-20T02:36:12;99009.44;;;20.41;95.21
47726;BME280;33483;48.294;16.388;2023-07-20T02:38:39;99015.16;;;20.32;95.98
47726;BME280;33483;48.294;16.388;2023-07-20T02:41:06;99013.56;;;20.29;97.90
47726;BME280;33483;48.294;16.388;2023-07-20T02:43:37;99019.53;;;20.23;100.00
47726;BME280;33483;48.294;16.388;2023-07-20T02:46:04;99024.06;;;20.17;100.00
47726;BME280;33483;48.294;16.388;2023-07-20T02:48:32;99030.72;;;20.11;100.00
47726;BME280;33483;48.294;16.388;2023-07-20T02:50:59;99035.81;;;20.03;100.00
47726;BME280;33483;48.294;16.388;2023-07-20T02:53:26;99043.16;;;19.97;100.00
47726;BME280;33483;48.294;16.388;2023-07-20T02:55:53;99045.69;;;19.93;100.00
47726;BME280;33483;48.294;16.388;2023-07-20T02:58:20;99049.09;;;19.91;100.00
47726;BME280;33483;48.294;16.388;2023-07-20T03:00:47;99054.41;;;19.97;100.00
47726;BME280;33483;48.294;16.388;2023-07-20T03:03:15;99053.91;;;20.00;100.00
47726;BME280;33483;48.294;16.388;2023-07-20T03:05:44;99052.19;;;19.95;100.00
47726;BME280;33483;48.294;16.388;2023-07-20T03:08:12;99051.72;;;19.99;100.00
47726;BME280;33483;48.294;16.388;2023-07-20T03:10:39;99075.69;;;20.00;100.00
47726;BME280;33483;48.294;16.388;2023-07-20T03:13:07;99071.53;;;20.01;100.00
47726;BME280;33483;48.294;16.388;2023-07-20T03:15:34;99080.59;;;19.99;100.00
47726;BME280;33483;48.294;16.388;2023-07-20T03:18:04;99077.41;;;20.05;100.00
47726;BME280;33483;48.294;16.388;2023-07-20T03:20:31;99072.41;;;20.25;100.00
47726;BME280;33483;48.294;16.388;2023-07-20T03:22:58;99082.69;;;20.32;100.00
47726;BME280;33483;48.294;16.388;2023-07-20T03:25:26;99090.31;;;20.41;100.00
47726;BME280;33483;48.294;16.388;2023-07-20T03:27:55;99089.22;;;20.46;100.00
47726;BME280;33483;48.294;16.388;2023-07-20T03:30:21;99096.47;;;20.49;100.00
47726;BME280;33483;48.294;16.388;2023-07-20T03:32:50;99098.44;;;20.46;100.00
47726;BME280;33483;48.294;16.388;2023-07-20T03:35:17;99100.91;;;20.52;99.90
47726;BME280;33483;48.294;16.388;2023-07-20T03:37:45;99105.66;;;20.49;100.00
47726;BME280;33483;48.294;16.388;2023-07-20T03:40:14;99115.81;;;20.54;100.00
47726;BME280;33483;48.294;16.388;2023-07-20T03:42:43;99122.84;;;20.65;97.90
47726;BME280;33483;48.294;16.388;2023-07-20T03:45:10;99119.31;;;20.76;97.42
47726;BME280;33483;48.294;16.388;2023-07-20T03:47:37;99121.03;;;20.81;96.38
47726;BME280;33483;48.294;16.388;2023-07-20T03:50:04;99128.78;;;20.92;93.87
47726;BME280;33483;48.294;16.388;2023-07-20T03:52:32;99132.13;;;21.00;91.78
47726;BME280;33483;48.294;16.388;2023-07-20T03:54:59;99137.78;;;21.11;90.51
47726;BME280;33483;48.294;16.388;2023-07-20T03:57:27;99137.56;;;21.42;87.38
47726;BME280;33483;48.294;16.388;2023-07-20T03:59:56;99134.63;;;21.40;86.42
47726;BME280;33483;48.294;16.388;2023-07-20T04:02:24;99140.50;;;21.44;85.33
47726;BME280;33483;48.294;16.388;2023-07-20T04:04:54;99141.13;;;21.43;85.44
47726;BME280;33483;48.294;16.388;2023-07-20T04:07:21;99139.66;;;21.88;82.46
47726;BME280;33483;48.294;16.388;2023-07-20T04:09:48;99144.47;;;22.22;80.99
47726;BME280;33483;48.294;16.388;2023-07-20T04:12:15;99150.84;;;22.59;77.08
47726;BME280;33483;48.294;16.388;2023-07-20T04:14:42;99150.47;;;22.28;77.88
47726;BME280;33483;48.294;16.388;2023-07-20T04:17:10;99154.09;;;22.05;80.21
47726;BME280;33483;48.294;16.388;2023-07-20T04:19:42;99154.59;;;22.02;80.30
47726;BME280;33483;48.294;16.388;2023-07-20T04:22:10;99161.69;;;22.03;80.74
47726;BME280;33483;48.294;16.388;2023-07-20T04:24:37;99167.09;;;21.99;81.40
47726;BME280;33483;48.294;16.388;2023-07-20T04:27:04;99173.22;;;22.07;81.81
47726;BME280;33483;48.294;16.388;2023-07-20T04:29:31;99176.75;;;22.07;82.03
47726;BME280;33483;48.294;16.388;2023-07-20T04:32:01;99169.53;;;22.04;81.57
47726;BME280;33483;48.294;16.388;2023-07-20T04:34:29;99168.69;;;22.02;82.68
47726;BME280;33483;48.294;16.388;2023-07-20T04:36:57;99174.06;;;22.09;82.13
47726;BME280;33483;48.294;16.388;2023-07-20T04:39:26;99182.28;;;22.17;81.53
47726;BME280;33483;48.294;16.388;2023-07-20T04:42:03;99189.00;;;22.23;81.69
47726;BME280;33483;48.294;16.388;2023-07-20T04:44:30;99185.31;;;22.32;81.14
47726;BME280;33483;48.294;16.388;2023-07-20T04:46:57;99190.94;;;22.32;81.57
47726;BME280;33483;48.294;16.388;2023-07-20T04:49:24;99189.81;;;22.38;81.93
47726;BME280;33483;48.294;16.388;2023-07-20T04:51:51;99188.19;;;22.46;81.60
47726;BME280;33483;48.294;16.388;2023-07-20T04:54:19;99188.25;;;22.34;82.88
47726;BME280;33483;48.294;16.388;2023-07-20T04:56:47;99188.75;;;22.31;82.92
47726;BME280;33483;48.294;16.388;2023-07-20T04:59:19;99188.75;;;22.19;83.55
47726;BME280;33483;48.294;16.388;2023-07-20T05:01:46;99178.72;;;22.16;84.75
47726;BME280;33483;48.294;16.388;2023-07-20T05:04:15;99179.50;;;22.05;86.09
47726;BME280;33483;48.294;16.388;2023-07-20T05:06:45;99176.91;;;21.98;86.31
47726;BME280;33483;48.294;16.388;2023-07-20T05:09:12;99177.16;;;22.02;87.26
47726;BME280;33483;48.294;16.388;2023-07-20T05:11:40;99192.94;;;22.18;86.80
47726;BME280;33483;48.294;16.388;2023-07-20T05:14:07;99195.72;;;22.42;83.89
47726;BME280;33483;48.294;16.388;2023-07-20T05:16:36;99201.06;;;22.49;84.01
47726;BME280;33483;48.294;16.388;2023-07-20T05:19:07;99198.25;;;22.49;83.84
47726;BME280;33483;48.294;16.388;2023-07-20T05:21:34;99207.22;;;22.46;83.71
47726;BME280;33483;48.294;16.388;2023-07-20T05:24:01;99208.47;;;22.54;84.50
47726;BME280;33483;48.294;16.388;2023-07-20T05:26:29;99205.38;;;22.62;84.62
47726;BME280;33483;48.294;16.388;2023-07-20T05:28:56;99212.50;;;22.51;84.75
47726;BME280;33483;48.294;16.388;2023-07-20T05:31:23;99207.97;;;22.58;83.65
47726;BME280;33483;48.294;16.388;2023-07-20T05:33:51;99202.03;;;22.65;84.33
47726;BME280;33483;48.294;16.388;2023-07-20T05:36:18;99206.22;;;22.53;83.67
47726;BME280;33483;48.294;16.388;2023-07-20T05:38:45;99207.19;;;23.58;76.96
47726;BME280;33483;48.294;16.388;2023-07-20T05:41:15;99212.53;;;23.79;75.43
47726;BME280;33483;48.294;16.388;2023-07-20T05:43:42;99207.56;;;23.38;75.80
47726;BME280;33483;48.294;16.388;2023-07-20T05:46:09;99209.22;;;23.30;77.47
47726;BME280;33483;48.294;16.388;2023-07-20T05:48:36;99212.72;;;23.56;75.36
47726;BME280;33483;48.294;16.388;2023-07-20T05:51:03;99224.09;;;23.69;74.00
47726;BME280;33483;48.294;16.388;2023-07-20T05:53:31;99218.22;;;23.79;74.64
47726;BME280;33483;48.294;16.388;2023-07-20T05:55:58;99219.47;;;23.62;75.28
47726;BME280;33483;48.294;16.388;2023-07-20T05:58:27;99218.06;;;23.50;75.01
47726;BME280;33483;48.294;16.388;2023-07-20T06:00:54;99222.69;;;23.57;74.76
47726;BME280;33483;48.294;16.388;2023-07-20T06:03:21;99222.16;;;23.47;73.42
47726;BME280;33483;48.294;16.388;2023-07-20T06:05:49;99213.28;;;23.66;73.12
47726;BME280;33483;48.294;16.388;2023-07-20T06:08:16;99222.28;;;23.62;71.35
47726;BME280;33483;48.294;16.388;2023-07-20T06:10:44;99225.03;;;23.74;71.66
47726;BME280;33483;48.294;16.388;2023-07-20T06:13:12;99229.41;;;23.77;69.78
47726;BME280;33483;48.294;16.388;2023-07-20T06:15:39;99234.28;;;24.01;67.94
47726;BME280;33483;48.294;16.388;2023-07-20T06:18:08;99233.66;;;24.16;66.05
47726;BME280;33483;48.294;16.388;2023-07-20T06:20:38;99234.59;;;24.07;64.25
47726;BME280;33483;48.294;16.388;2023-07-20T06:23:05;99238.69;;;24.04;64.58
47726;BME280;33483;48.294;16.388;2023-07-20T06:25:33;99239.28;;;23.89;64.77
47726;BME280;33483;48.294;16.388;2023-07-20T06:28:02;99235.78;;;24.02;63.22
47726;BME280;33483;48.294;16.388;2023-07-20T06:30:33;99242.53;;;23.97;62.91
47726;BME280;33483;48.294;16.388;2023-07-20T06:33:00;99233.84;;;24.20;62.26
47726;BME280;33483;48.294;16.388;2023-07-20T06:35:27;99230.25;;;24.47;60.36
47726;BME280;33483;48.294;16.388;2023-07-20T06:37:55;99236.00;;;24.63;60.06
47726;BME280;33483;48.294;16.388;2023-07-20T06:40:22;99243.50;;;24.42;58.65
47726;BME280;33483;48.294;16.388;2023-07-20T06:42:55;99252.47;;;24.80;57.66
47726;BME280;33483;48.294;16.388;2023-07-20T06:45:25;99255.78;;;24.33;58.51
47726;BME280;33483;48.294;16.388;2023-07-20T06:47:52;99244.97;;;24.43;58.63
47726;BME280;33483;48.294;16.388;2023-07-20T06:50:20;99256.19;;;24.98;56.92
47726;BME280;33483;48.294;16.388;2023-07-20T06:52:53;99257.94;;;25.05;57.01
47726;BME280;33483;48.294;16.388;2023-07-20T06:55:22;99248.91;;;25.53;53.50
47726;BME280;33483;48.294;16.388;2023-07-20T06:57:50;99259.16;;;27.24;49.37
47726;BME280;33483;48.294;16.388;2023-07-20T07:00:18;99263.94;;;28.11;46.51
47726;BME280;33483;48.294;16.388;2023-07-20T07:02:45;99266.69;;;29.33;44.04
47726;BME280;33483;48.294;16.388;2023-07-20T07:05:17;99261.97;;;29.65;41.38
47726;BME280;33483;48.294;16.388;2023-07-20T07:07:47;99255.19;;;30.02;40.80
47726;BME280;33483;48.294;16.388;2023-07-20T07:10:14;99264.06;;;30.37;40.37
47726;BME280;33483;48.294;16.388;2023-07-20T07:12:41;99260.28;;;31.12;39.67
47726;BME280;33483;48.294;16.388;2023-07-20T07:15:09;99264.34;;;31.32;38.88
47726;BME280;33483;48.294;16.388;2023-07-20T07:17:37;99274.88;;;32.21;37.49
47726;BME280;33483;48.294;16.388;2023-07-20T07:20:06;99286.13;;;32.84;36.41
47726;BME280;33483;48.294;16.388;2023-07-20T07:22:45;99272.88;;;32.29;36.60
47726;BME280;33483;48.294;16.388;2023-07-20T07:25:13;99278.88;;;32.41;36.08
47726;BME280;33483;48.294;16.388;2023-07-20T07:27:44;99281.13;;;32.84;36.00
47726;BME280;33483;48.294;16.388;2023-07-20T07:30:11;99280.72;;;32.62;36.06
47726;BME280;33483;48.294;16.388;2023-07-20T07:32:38;99269.06;;;32.52;36.12
47726;BME280;33483;48.294;16.388;2023-07-20T07:35:06;99271.44;;;33.51;35.31
47726;BME280;33483;48.294;16.388;2023-07-20T07:37:33;99282.44;;;33.19;34.48
47726;BME280;33483;48.294;16.388;2023-07-20T07:40:13;99276.50;;;33.55;34.52
47726;BME280;33483;48.294;16.388;2023-07-20T07:42:40;99278.94;;;33.25;35.33
47726;BME280;33483;48.294;16.388;2023-07-20T07:45:07;99274.50;;;33.18;34.46
47726;BME280;33483;48.294;16.388;2023-07-20T07:47:34;99267.78;;;33.47;34.14
47726;BME280;33483;48.294;16.388;2023-07-20T07:50:02;99270.34;;;34.34;32.47
47726;BME280;33483;48.294;16.388;2023-07-20T07:52:29;99267.84;;;34.70;32.63
47726;BME280;33483;48.294;16.388;2023-07-20T07:54:57;99276.75;;;34.29;32.29
47726;BME280;33483;48.294;16.388;2023-07-20T07:57:24;99269.69;;;33.80;34.21
47726;BME280;33483;48.294;16.388;2023-07-20T07:59:52;99266.00;;;34.29;32.54
47726;BME280;33483;48.294;16.388;2023-07-20T08:02:19;99263.81;;;34.28;32.07
47726;BME280;33483;48.294;16.388;2023-07-20T08:04:46;99266.47;;;34.77;32.45
47726;BME280;33483;48.294;16.388;2023-07-20T08:07:13;99269.81;;;33.92;32.28
47726;BME280;33483;48.294;16.388;2023-07-20T08:09:41;99275.56;;;34.48;32.08
47726;BME280;33483;48.294;16.388;2023-07-20T08:12:11;99277.44;;;34.25;31.82
47726;BME280;33483;48.294;16.388;2023-07-20T08:14:38;99274.09;;;33.87;32.72
47726;BME280;33483;48.294;16.388;2023-07-20T08:17:05;99275.78;;;34.68;31.37
47726;BME280;33483;48.294;16.388;2023-07-20T08:19:33;99274.91;;;33.93;32.50
47726;BME280;33483;48.294;16.388;2023-07-20T08:22:00;99259.03;;;34.48;32.94
47726;BME280;33483;48.294;16.388;2023-07-20T08:24:27;99248.94;;;34.49;32.49
47726;BME280;33483;48.294;16.388;2023-07-20T08:26:54;99258.34;;;34.56;31.61
47726;BME280;33483;48.294;16.388;2023-07-20T08:29:22;99269.88;;;35.40;31.37
47726;BME280;33483;48.294;16.388;2023-07-20T08:31:49;99263.19;;;34.37;31.64
47726;BME280;33483;48.294;16.388;2023-07-20T08:34:16;99254.69;;;32.92;34.29
47726;BME280;33483;48.294;16.388;2023-07-20T08:36:57;99246.22;;;31.87;36.41
47726;BME280;33483;48.294;16.388;2023-07-20T08:39:24;99245.41;;;30.09;39.20
47726;BME280;33483;48.294;16.388;2023-07-20T08:41:54;99235.66;;;28.78;41.94
47726;BME280;33483;48.294;16.388;2023-07-20T08:44:22;99242.44;;;27.89;43.88
47726;BME280;33483;48.294;16.388;2023-07-20T08:46:53;99236.88;;;27.01;46.90
47726;BME280;33483;48.294;16.388;2023-07-20T08:49:21;99231.81;;;26.64;49.17
47726;BME280;33483;48.294;16.388;2023-07-20T08:51:48;99232.34;;;26.10;49.48
47726;BME280;33483;48.294;16.388;2023-07-20T08:54:16;99227.31;;;25.62;51.85
47726;BME280;33483;48.294;16.388;2023-07-20T08:56:43;99237.78;;;25.28;54.83
47726;BME280;33483;48.294;16.388;2023-07-20T08:59:16;99236.28;;;24.82;59.01
47726;BME280;33483;48.294;16.388;2023-07-20T09:01:43;99245.13;;;24.75;60.36
47726;BME280;33483;48.294;16.388;2023-07-20T09:04:11;99239.84;;;26.03;61.82
47726;BME280;33483;48.294;16.388;2023-07-20T09:06:39;99246.78;;;28.92;50.49
47726;BME280;33483;48.294;16.388;2023-07-20T09:09:11;99249.41;;;29.74;46.43
47726;BME280;33483;48.294;16.388;2023-07-20T09:11:40;99249.19;;;28.36;46.01
47726;BME280;33483;48.294;16.388;2023-07-20T09:14:08;99251.47;;;27.63;47.45
47726;BME280;33483;48.294;16.388;2023-07-20T09:19:16;99228.69;;;26.40;51.15
47726;BME280;33483;48.294;16.388;2023-07-20T09:21:46;99235.28;;;28.27;46.48
47726;BME280;33483;48.294;16.388;2023-07-20T09:24:15;99235.28;;;28.27;47.96
47726;BME280;33483;48.294;16.388;2023-07-20T09:26:43;99252.75;;;27.06;48.85
47726;BME280;33483;48.294;16.388;2023-07-20T09:29:13;99244.84;;;26.36;52.32
47726;BME280;33483;48.294;16.388;2023-07-20T09:31:42;99247.72;;;26.20;52.27
47726;BME280;33483;48.294;16.388;2023-07-20T09:34:10;99248.66;;;26.09;52.81
47726;BME280;33483;48.294;16.388;2023-07-20T09:36:37;99245.75;;;28.20;48.06
47726;BME280;33483;48.294;16.388;2023-07-20T09:39:07;99254.75;;;27.56;48.99
47726;BME280;33483;48.294;16.388;2023-07-20T09:41:40;99240.47;;;27.19;47.99
47726;BME280;33483;48.294;16.388;2023-07-20T09:44:13;99239.50;;;26.95;49.99
47726;BME280;33483;48.294;16.388;2023-07-20T09:46:49;99239.63;;;26.63;50.44
47726;BME280;33483;48.294;16.388;2023-07-20T09:49:21;99236.56;;;26.09;52.96
47726;BME280;33483;48.294;16.388;2023-07-20T09:51:53;99238.56;;;25.75;53.03
47726;BME280;33483;48.294;16.388;2023-07-20T09:54:21;99244.63;;;25.68;53.59
47726;BME280;33483;48.294;16.388;2023-07-20T09:56:48;99234.16;;;25.56;56.73
47726;BME280;33483;48.294;16.388;2023-07-20T09:59:17;99232.16;;;25.59;55.56
47726;BME280;33483;48.294;16.388;2023-07-20T10:01:44;99231.69;;;25.96;57.22
47726;BME280;33483;48.294;16.388;2023-07-20T10:04:13;99236.28;;;25.87;57.10
47726;BME280;33483;48.294;16.388;2023-07-20T10:06:41;99235.66;;;25.73;63.69
47726;BME280;33483;48.294;16.388;2023-07-20T10:09:10;99247.00;;;25.73;55.88
47726;BME280;33483;48.294;16.388;2023-07-20T10:11:40;99242.34;;;27.30;51.02
47726;BME280;33483;48.294;16.388;2023-07-20T10:14:09;99241.38;;;28.17;47.59
47726;BME280;33483;48.294;16.388;2023-07-20T10:16:39;99241.16;;;28.94;46.33
47726;BME280;33483;48.294;16.388;2023-07-20T10:19:39;99229.53;;;29.31;42.81
47726;BME280;33483;48.294;16.388;2023-07-20T10:22:22;99242.88;;;28.40;45.01
47726;BME280;33483;48.294;16.388;2023-07-20T10:24:52;99231.19;;;27.73;46.47
47726;BME280;33483;48.294;16.388;2023-07-20T10:27:21;99234.97;;;27.60;46.02
47726;BME280;33483;48.294;16.388;2023-07-20T10:29:48;99219.66;;;27.14;48.48
47726;BME280;33483;48.294;16.388;2023-07-20T10:32:18;99224.09;;;26.66;50.21
47726;BME280;33483;48.294;16.388;2023-07-20T10:34:52;99225.66;;;26.70;49.41
47726;BME280;33483;48.294;16.388;2023-07-20T10:42:55;99229.28;;;26.21;51.44
47726;BME280;33483;48.294;16.388;2023-07-20T10:45:36;99226.41;;;27.05;48.55
47726;BME280;33483;48.294;16.388;2023-07-20T10:48:04;99223.25;;;29.60;44.69
47726;BME280;33483;48.294;16.388;2023-07-20T10:50:33;99223.75;;;30.80;40.42
47726;BME280;33483;48.294;16.388;2023-07-20T10:53:04;99213.97;;;31.86;38.98
47726;BME280;33483;48.294;16.388;2023-07-20T10:55:32;99214.25;;;32.78;37.09
47726;BME280;33483;48.294;16.388;2023-07-20T10:58:21;99219.56;;;32.54;37.42
47726;BME280;33483;48.294;16.388;2023-07-20T11:00:57;99216.50;;;32.42;34.52
47726;BME280;33483;48.294;16.388;2023-07-20T11:03:29;99205.66;;;33.24;33.89
47726;BME280;33483;48.294;16.388;2023-07-20T11:08:47;99198.16;;;33.50;33.07
47726;BME280;33483;48.294;16.388;2023-07-20T11:11:27;99195.13;;;33.40;31.41
47726;BME280;33483;48.294;16.388;2023-07-20T11:14:01;99208.69;;;32.88;30.40
47726;BME280;33483;48.294;16.388;2023-07-20T11:16:37;99202.41;;;32.99;30.90
47726;BME280;33483;48.294;16.388;2023-07-20T11:19:05;99199.19;;;33.23;30.95
47726;BME280;33483;48.294;16.388;2023-07-20T11:21:36;99188.78;;;32.19;32.45
47726;BME280;33483;48.294;16.388;2023-07-20T11:24:17;99203.22;;;32.62;32.73
47726;BME280;33483;48.294;16.388;2023-07-20T11:26:46;99198.28;;;33.11;31.30
47726;BME280;33483;48.294;16.388;2023-07-20T11:29:15;99197.72;;;31.97;33.70
47726;BME280;33483;48.294;16.388;2023-07-20T11:31:57;99196.41;;;30.75;35.56
47726;BME280;33483;48.294;16.388;2023-07-20T11:34:29;99180.41;;;30.37;35.42
47726;BME280;33483;48.294;16.388;2023-07-20T11:36:56;99183.28;;;30.11;37.21
47726;BME280;33483;48.294;16.388;2023-07-20T11:39:26;99188.00;;;29.75;37.84
47726;BME280;33483;48.294;16.388;2023-07-20T11:41:55;99190.41;;;30.93;35.57
47726;BME280;33483;48.294;16.388;2023-07-20T11:44:22;99177.28;;;30.82;34.24
47726;BME280;33483;48.294;16.388;2023-07-20T11:49:30;99175.09;;;30.80;34.66
47726;BME280;33483;48.294;16.388;2023-07-20T11:52:01;99183.09;;;31.18;35.43
47726;BME280;33483;48.294;16.388;2023-07-20T11:54:28;99168.59;;;30.50;35.00
47726;BME280;33483;48.294;16.388;2023-07-20T11:56:56;99179.44;;;30.26;36.70
47726;BME280;33483;48.294;16.388;2023-07-20T11:59:23;99169.69;;;29.84;36.94
47726;BME280;33483;48.294;16.388;2023-07-20T12:01:53;99176.50;;;29.02;37.85
47726;BME280;33483;48.294;16.388;2023-07-20T12:04:22;99167.50;;;29.33;38.20
47726;BME280;33483;48.294;16.388;2023-07-20T12:06:50;99172.66;;;29.88;37.81
47726;BME280;33483;48.294;16.388;2023-07-20T12:09:17;99161.72;;;30.61;36.29
47726;BME280;33483;48.294;16.388;2023-07-20T12:11:45;99155.75;;;30.51;35.56
47726;BME280;33483;48.294;16.388;2023-07-20T12:14:12;99157.53;;;30.37;36.57
47726;BME280;33483;48.294;16.388;2023-07-20T12:16:44;99159.63;;;29.81;35.66
47726;BME280;33483;48.294;16.388;2023-07-20T12:19:19;99157.53;;;30.09;36.49
47726;BME280;33483;48.294;16.388;2023-07-20T12:21:46;99167.44;;;30.06;36.70
47726;BME280;33483;48.294;16.388;2023-07-20T12:24:17;99149.19;;;30.19;36.28
47726;BME280;33483;48.294;16.388;2023-07-20T12:26:45;99150.97;;;30.32;35.51
47726;BME280;33483;48.294;16.388;2023-07-20T12:29:12;99153.56;;;30.22;34.62
47726;BME280;33483;48.294;16.388;2023-07-20T12:31:40;99141.66;;;30.59;34.93
47726;BME280;33483;48.294;16.388;2023-07-20T12:34:07;99136.25;;;30.16;34.77
47726;BME280;33483;48.294;16.388;2023-07-20T12:36:36;99149.19;;;29.92;35.21
47726;BME280;33483;48.294;16.388;2023-07-20T12:39:04;99146.69;;;29.54;34.48
47726;BME280;33483;48.294;16.388;2023-07-20T12:41:33;99143.28;;;29.60;34.94
47726;BME280;33483;48.294;16.388;2023-07-20T12:44:00;99146.00;;;29.79;35.09
47726;BME280;33483;48.294;16.388;2023-07-20T12:46:28;99135.19;;;29.52;34.78
47726;BME280;33483;48.294;16.388;2023-07-20T12:48:56;99141.38;;;29.43;35.33
47726;BME280;33483;48.294;16.388;2023-07-20T12:51:24;99146.00;;;29.56;35.37
47726;BME280;33483;48.294;16.388;2023-07-20T12:53:53;99138.00;;;29.74;35.99
47726;BME280;33483;48.294;16.388;2023-07-20T12:56:24;99133.31;;;29.61;35.64
47726;BME280;33483;48.294;16.388;2023-07-20T12:58:54;99134.84;;;29.64;35.03
47726;BME280;33483;48.294;16.388;2023-07-20T13:01:22;99139.28;;;29.69;35.93
47726;BME280;33483;48.294;16.388;2023-07-20T13:03:51;99135.91;;;30.02;35.78
47726;BME280;33483;48.294;16.388;2023-07-20T13:06:28;99132.53;;;29.84;35.23
47726;BME280;33483;48.294;16.388;2023-07-20T13:08:55;99129.75;;;30.14;34.62
47726;BME280;33483;48.294;16.388;2023-07-20T13:11:25;99142.69;;;30.42;34.87
47726;BME280;33483;48.294;16.388;2023-07-20T13:13:53;99152.66;;;30.41;34.04
47726;BME280;33483;48.294;16.388;2023-07-20T13:16:21;99140.03;;;29.97;33.65
47726;BME280;33483;48.294;16.388;2023-07-20T13:18:48;99159.94;;;29.93;35.60
47726;BME280;33483;48.294;16.388;2023-07-20T13:21:16;99161.63;;;30.02;37.19
47726;BME280;33483;48.294;16.388;2023-07-20T13:23:46;99161.84;;;29.35;36.73